Nearby METAR Reports

 

KSJC - San Jose, California, USA
Distance from station: NE 14km
Updated: 2020-08-07 01:53
Clear
Clear
 Wind from calm
Wind: Calm
Temperature: 16°C
Dew Point: 12°C
Humidity: 77%
Barometer: 1012.9 hPa
Clouds: Clear
Visibility: 16 km
2020/08/07 08:53 KSJC 070853Z AUTO 00000KT 10SM CLR 16/12 A2991 RMK AO2 SLP128 T01560117 58005
KNUQ - Moffett Nas/Mtn, California, USA
Distance from station: N 14km
Updated: 2020-08-07 01:55
Clear
Clear
 Wind from calm
Wind: Calm
Temperature: 16°C
Dew Point: 13°C
Humidity: 83%
Barometer: 1012.9 hPa
Clouds: Clear
Visibility: 16 km
2020/08/07 08:55 KNUQ 070855Z AUTO 00000KT 10SM CLR 16/13 A2991 RMK AO2
 
KPAO - Palo Alto, California, USA
Distance from station: NNW 23km
Updated: 2020-08-06 18:47
NOT Current
Clear
Clear
 Wind from NW
Wind: NW 22 km/h
Temperature: 21°C
Dew Point: 13°C
Humidity: 60%
Barometer: 1012.5 hPa
Clouds: Clear
Visibility: 16 km
2020/08/07 01:47 KPAO 070147Z 31012KT 10SM SKC 21/13 A2990 RMK LAST
KRHV - San Jose/Reid, California, USA
Distance from station: ENE 19km
Updated: 2020-08-06 21:50
NOT Current
Clear
Clear
 Wind from NNW
Wind: NNW 13 km/h
Temperature: 19°C
Dew Point: 13°C
Humidity: 68%
Barometer: 1013.5 hPa
Clouds: Clear
Visibility: 16 km
2020/08/07 04:50 KRHV 070450Z 33007KT 10SM SKC 19/13 A2993 RMK LAST
 
KOAK - Oakland, California, USA
Distance from station: NNW 50km
Updated: 2020-08-07 01:53
Partly cloudy
Partly cloudy
 Wind from SW
Wind: SW 22 km/h
Temperature: 17°C
Dew Point: 12°C
Humidity: 73%
Barometer: 1012.9 hPa
Clouds: Partly cloudy
Visibility: 16 km
Cloud details: Partly cloudy 305 m
Partly cloudy 427 m
2020/08/07 08:53 KOAK 070853Z 23012KT 10SM SCT010 SCT014 17/12 A2991 RMK AO2 SLP128 T01670122 58004
KSQL - San Carlos Airpo, California, USA
Distance from station: NW 34km
Updated: 2020-08-07 01:55
Clear
Clear
 Wind from W
Wind: W 6 km/h
Temperature: 15°C
Dew Point: 12°C
Humidity: 82%
Barometer: 1013.2 hPa
Clouds: Clear
Visibility: 16 km
2020/08/07 08:55 KSQL 070855Z AUTO 28003KT 10SM CLR 15/12 A2992 RMK AO2
 
KSFO - San Francisco, California, USA
Distance from station: NW 49km
Updated: 2020-08-07 01:56
Few Clouds
Few Clouds
 Wind from calm
Wind: Calm
Temperature: 16°C
Dew Point: 11°C
Humidity: 72%
Barometer: 1012.5 hPa
Clouds: Few Clouds
Visibility: 16 km
Cloud details: Few Clouds 213 m
2020/08/07 08:56 KSFO 070856Z 00000KT 10SM FEW007 16/11 A2990 RMK AO2 SLP126 T01560111 57006
KE16 - San Martin, California, USA
Distance from station: ESE 43km
Updated: 2020-08-07 01:45
Clear
Clear
 Wind from ESE
Wind: ESE 15 km/h
Temperature: 14°C
Dew Point: 13°C
Humidity: 94%
Barometer: 1014.2 hPa
Clouds: Clear
Visibility: 16 km
2020/08/07 08:45 KE16 070845Z AUTO 12008KT 10SM CLR 14/13 A2995 RMK AO2 PWINO PNO
 
KWVI - Watsonville, California, USA
Distance from station: SSE 44km
Updated: 2020-08-07 01:53
Overcast
Overcast
 Wind from calm
Wind: Calm
Temperature: 25°C
Dew Point: 14°C
Humidity: 51%
Barometer: 1014.2 hPa
Clouds: Overcast
Visibility: 16 km
Cloud details: Overcast 213 m
2020/08/07 08:53 KWVI 070853Z AUTO 00000KT 10SM OVC007 25/14 A2995 RMK AO2 SLP139 T02500139 58004 $
KHAF - Half Moon Bay, California, USA
Distance from station: WNW 50km
Updated: 2020-08-07 01:55
Mist, Overcast
Mist, Overcast
 Wind from SW
Wind: SW 7 km/h
Temperature: 14°C
Dew Point: 12°C
Humidity: 88%
Barometer: 1013.9 hPa
Summary: Mist
Clouds: Overcast
Visibility: 8 km
Cloud details: Overcast 396 m
2020/08/07 08:55 KHAF 070855Z AUTO 22004KT 5SM BR OVC013 14/12 A2994 RMK AO2
 
KHWD - Hayward, California, USA
Distance from station: N 44km
Updated: 2020-08-07 01:54
Clear
Clear
 Wind from calm
Wind: Calm
Temperature: 17°C
Dew Point: 12°C
Humidity: 73%
Barometer: 1012.9 hPa
Clouds: Clear
Visibility: 16 km
2020/08/07 08:54 KHWD 070854Z AUTO 00000KT 10SM CLR 17/12 A2991 RMK AO2 SLP136 T01670117 58006
KLVK - Livermore, California, USA
Distance from station: NNE 51km
Updated: 2020-08-07 01:53
Clear
Clear
 Wind from WNW
Wind: WNW 6 km/h
Temperature: 14°C
Dew Point: 12°C
Humidity: 88%
Barometer: 1012.5 hPa
Clouds: Clear
Visibility: 16 km
2020/08/07 08:53 KLVK 070853Z AUTO 29003KT 10SM CLR 14/12 A2990 RMK AO2 SLP121 T01440122 58005